createdAt,value
2023-04-04T00:01:14.144Z,101202.33
2023-04-04T00:03:42.804Z,101195.18
2023-04-04T00:06:10.939Z,101193.25
2023-04-04T00:08:38.949Z,101196.85
2023-04-04T00:11:06.944Z,101197.36
2023-04-04T00:13:35.304Z,101197.02
2023-04-04T00:16:03.299Z,101194.58
2023-04-04T00:18:31.468Z,101188.88
2023-04-04T00:20:59.436Z,101189.89
2023-04-04T00:23:27.317Z,101185.23
2023-04-04T00:25:55.341Z,101185.88
2023-04-04T00:28:23.310Z,101185.84
2023-04-04T00:30:54.628Z,101186.30
2023-04-04T00:33:22.714Z,101185.28
2023-04-04T00:35:50.840Z,101184.33
2023-04-04T00:38:18.849Z,101182.65
2023-04-04T00:40:49.281Z,101179.80
2023-04-04T00:43:17.466Z,101179.91
2023-04-04T00:45:46.553Z,101173.39
2023-04-04T00:48:14.639Z,101166.92
2023-04-04T00:50:42.665Z,101170.06
2023-04-04T00:53:10.876Z,101169.91
2023-04-04T00:55:39.440Z,101164.92
2023-04-04T00:58:07.465Z,101165.70
2023-04-04T01:00:36.092Z,101161.08
2023-04-04T01:03:05.926Z,101157.22
2023-04-04T01:05:34.030Z,101151.70
2023-04-04T01:08:02.467Z,101146.31
2023-04-04T01:10:31.868Z,101147.48
2023-04-04T01:13:01.630Z,101142.38
2023-04-04T01:15:30.126Z,101138.50
2023-04-04T01:18:00.397Z,101139.70
2023-04-04T01:20:32.566Z,101141.63
2023-04-04T01:23:02.005Z,101136.37
2023-04-04T01:25:32.299Z,101139.02
2023-04-04T01:28:05.008Z,101133.45
2023-04-04T01:30:35.422Z,101136.23
2023-04-04T01:33:13.916Z,101132.50
2023-04-04T01:35:53.539Z,101131.39
2023-04-04T01:38:34.014Z,101132.20
2023-04-04T01:41:04.008Z,101128.45
2023-04-04T01:43:34.252Z,101129.52
2023-04-04T01:46:03.699Z,101128.64
2023-04-04T01:48:31.974Z,101129.30
2023-04-04T01:51:04.767Z,101132.66
2023-04-04T01:53:33.656Z,101135.60
2023-04-04T01:56:02.052Z,101136.35
2023-04-04T01:58:32.421Z,101136.70
2023-04-04T02:01:00.548Z,101136.33
2023-04-04T02:03:28.717Z,101138.83
2023-04-04T02:05:56.615Z,101142.11
2023-04-04T02:08:24.858Z,101138.95
2023-04-04T02:10:53.891Z,101138.90
2023-04-04T02:13:23.770Z,101140.77
2023-04-04T02:15:52.540Z,101141.06
2023-04-04T02:18:20.906Z,101144.67
2023-04-04T02:20:54.916Z,101141.45
2023-04-04T02:23:22.838Z,101139.54
2023-04-04T02:25:51.431Z,101141.27
2023-04-04T02:28:19.692Z,101140.08
2023-04-04T02:30:49.141Z,101135.89
2023-04-04T02:33:17.318Z,101140.36
2023-04-04T02:35:46.030Z,101143.27
2023-04-04T02:38:14.157Z,101143.71
2023-04-04T02:40:47.953Z,101144.92
2023-04-04T02:43:16.193Z,101146.94
2023-04-04T02:45:44.620Z,101146.94
2023-04-04T02:48:21.673Z,101149.92
2023-04-04T02:50:52.145Z,101153.49
2023-04-04T02:53:20.068Z,101153.95
2023-04-04T02:55:49.615Z,101154.90
2023-04-04T02:58:18.264Z,101156.40
2023-04-04T03:00:49.408Z,101155.25
2023-04-04T03:03:17.518Z,101155.98
2023-04-04T03:05:47.336Z,101153.95
2023-04-04T03:08:15.887Z,101156.87
2023-04-04T03:10:44.912Z,101156.46
2023-04-04T03:13:13.058Z,101155.78
2023-04-04T03:15:41.697Z,101155.58
2023-04-04T03:18:09.747Z,101155.88
2023-04-04T03:20:38.167Z,101153.23
2023-04-04T03:23:06.605Z,101153.41
2023-04-04T03:25:34.564Z,101150.98
2023-04-04T03:28:11.786Z,101149.98
2023-04-04T03:30:40.969Z,101146.29
2023-04-04T03:33:09.991Z,101146.91
2023-04-04T03:35:41.974Z,101147.52
2023-04-04T03:38:10.932Z,101144.78
2023-04-04T03:40:39.843Z,101148.66
2023-04-04T03:43:12.979Z,101147.77
2023-04-04T03:45:41.665Z,101145.41
2023-04-04T03:48:10.721Z,101146.51
2023-04-04T03:50:39.697Z,101144.20
2023-04-04T03:53:07.873Z,101145.52
2023-04-04T03:55:35.861Z,101145.97
2023-04-04T03:58:05.019Z,101150.10
2023-04-04T04:04:52.619Z,101151.23
2023-04-04T04:07:20.664Z,101152.27
2023-04-04T04:09:49.117Z,101150.47
2023-04-04T04:12:17.340Z,101149.38
2023-04-04T04:14:45.203Z,101152.92
2023-04-04T04:17:13.344Z,101153.06
2023-04-04T04:19:41.287Z,101153.80
2023-04-04T04:22:10.356Z,101148.65
2023-04-04T04:24:38.358Z,101149.16
2023-04-04T04:27:06.983Z,101146.84
2023-04-04T04:29:35.075Z,101140.63
2023-04-04T04:34:37.753Z,101138.16
2023-04-04T04:37:06.296Z,101129.86
2023-04-04T04:39:55.658Z,101123.57
2023-04-04T04:42:46.462Z,101115.13
2023-04-04T04:45:17.123Z,101110.74
2023-04-04T04:47:49.522Z,101110.44
2023-04-04T04:50:19.248Z,101106.19
2023-04-04T04:52:53.036Z,101105.34
2023-04-04T04:55:21.320Z,101099.96
2023-04-04T04:57:58.633Z,101100.36
2023-04-04T05:00:28.963Z,101105.91
2023-04-04T05:02:57.174Z,101103.43
2023-04-04T05:05:35.111Z,101102.17
2023-04-04T05:08:06.010Z,101102.26
2023-04-04T05:10:35.649Z,101104.02
2023-04-04T05:13:04.127Z,101107.30
2023-04-04T05:15:37.123Z,101107.88
2023-04-04T05:18:05.801Z,101106.14
2023-04-04T05:20:35.552Z,101107.08
2023-04-04T05:23:04.842Z,101105.04
2023-04-04T05:25:39.654Z,101109.15
2023-04-04T05:28:08.412Z,101109.46
2023-04-04T05:30:37.502Z,101112.46
2023-04-04T05:33:31.927Z,101115.66
2023-04-04T05:36:13.030Z,101112.58
2023-04-04T05:38:47.129Z,101111.61
2023-04-04T05:41:16.349Z,101108.34
2023-04-04T05:43:44.877Z,101108.54
2023-04-04T05:46:16.790Z,101105.01
2023-04-04T05:48:50.884Z,101106.08
2023-04-04T05:51:19.602Z,101107.92
2023-04-04T05:54:07.546Z,101105.92
2023-04-04T05:56:36.041Z,101103.70
2023-04-04T05:59:05.993Z,101105.75
2023-04-04T06:01:37.017Z,101103.81
2023-04-04T06:04:11.597Z,101108.67
2023-04-04T06:06:41.340Z,101105.90
2023-04-04T06:09:10.051Z,101102.27
2023-04-04T06:11:38.502Z,101103.11
2023-04-04T06:14:10.074Z,101105.08
2023-04-04T06:16:38.362Z,101104.39
2023-04-04T06:19:06.413Z,101101.42
2023-04-04T06:21:34.315Z,101102.58
2023-04-04T06:24:02.702Z,101106.48
2023-04-04T06:26:30.898Z,101098.67
2023-04-04T06:29:01.197Z,101099.49
2023-04-04T06:31:32.645Z,101090.90
2023-04-04T06:34:07.146Z,101090.69
2023-04-04T06:36:42.023Z,101093.66
2023-04-04T06:39:10.054Z,101091.95
2023-04-04T06:41:38.561Z,101091.02
2023-04-04T06:44:06.800Z,101087.59
2023-04-04T06:46:37.662Z,101087.11
2023-04-04T06:49:06.410Z,101088.11
2023-04-04T06:51:34.978Z,101088.17
2023-04-04T06:54:19.032Z,101090.08
2023-04-04T06:56:49.950Z,101087.01
2023-04-04T06:59:18.517Z,101084.05
2023-04-04T07:01:46.569Z,101080.16
2023-04-04T07:04:15.018Z,101080.34
2023-04-04T07:06:44.054Z,101082.77
2023-04-04T07:09:25.950Z,101082.21
2023-04-04T07:11:57.045Z,101079.69
2023-04-04T07:14:26.102Z,101081.90
2023-04-04T07:16:55.342Z,101074.04
2023-04-04T07:19:24.708Z,101070.96
2023-04-04T07:21:53.735Z,101058.05
2023-04-04T07:24:21.844Z,101062.23
2023-04-04T07:26:49.852Z,101069.59
2023-04-04T07:29:18.491Z,101067.85
2023-04-04T07:31:46.600Z,101065.73
2023-04-04T07:34:15.038Z,101066.48
2023-04-04T07:36:43.482Z,101068.44
2023-04-04T07:39:11.643Z,101066.13
2023-04-04T07:41:39.875Z,101059.14
2023-04-04T07:44:08.133Z,101056.02
2023-04-04T07:46:36.299Z,101062.53
2023-04-04T07:49:04.337Z,101064.00
2023-04-04T07:51:32.880Z,101057.36
2023-04-04T07:54:02.432Z,101054.83
2023-04-04T07:56:30.598Z,101052.92
2023-04-04T07:58:58.587Z,101050.79
2023-04-04T08:01:27.128Z,101053.63
2023-04-04T08:03:55.280Z,101058.63
2023-04-04T08:06:23.775Z,101052.67
2023-04-04T08:08:52.415Z,101050.16
2023-04-04T08:11:20.440Z,101048.91
2023-04-04T08:13:48.960Z,101047.17
2023-04-04T08:16:17.748Z,101048.55
2023-04-04T08:18:45.821Z,101045.18
2023-04-04T08:21:13.967Z,101045.56
2023-04-04T08:23:41.920Z,101044.02
2023-04-04T08:26:10.066Z,101037.67
2023-04-04T08:28:38.805Z,101036.05
2023-04-04T08:31:06.865Z,101030.96
2023-04-04T08:33:46.647Z,101030.64
2023-04-04T08:36:16.379Z,101029.48
2023-04-04T08:38:44.694Z,101031.25
2023-04-04T08:41:13.478Z,101027.40
2023-04-04T08:43:46.561Z,101019.42
2023-04-04T08:46:15.926Z,101016.60
2023-04-04T08:48:45.021Z,101017.14
2023-04-04T08:51:14.905Z,101016.25
2023-04-04T08:53:43.015Z,101012.38
2023-04-04T08:56:11.237Z,101015.48
2023-04-04T08:58:39.599Z,101016.05
2023-04-04T09:01:08.288Z,101023.59
2023-04-04T09:03:38.177Z,101017.02
2023-04-04T09:06:07.352Z,101020.20
2023-04-04T09:08:35.573Z,101017.92
2023-04-04T09:11:04.547Z,101018.75
2023-04-04T09:13:32.665Z,101018.73
2023-04-04T09:16:01.330Z,101018.67
2023-04-04T09:18:30.077Z,101014.23
2023-04-04T09:20:58.170Z,101016.52
2023-04-04T09:23:26.175Z,101015.98
2023-04-04T09:26:04.113Z,101016.71
2023-04-04T09:28:33.793Z,101022.67
2023-04-04T09:31:06.994Z,101024.06
2023-04-04T09:33:35.475Z,101022.20
2023-04-04T09:36:13.453Z,101022.20
2023-04-04T09:38:45.880Z,101017.50
2023-04-04T09:41:16.190Z,101019.52
2023-04-04T09:43:45.647Z,101021.44
2023-04-04T09:46:13.733Z,101020.46
2023-04-04T09:48:50.552Z,101019.70
2023-04-04T09:51:19.084Z,101011.58
2023-04-04T09:53:51.982Z,101013.41
2023-04-04T09:56:20.276Z,101008.92
2023-04-04T09:59:02.392Z,101005.77
2023-04-04T10:01:31.584Z,101014.30
2023-04-04T10:04:00.033Z,101016.48
2023-04-04T10:06:28.681Z,101014.43
2023-04-04T10:08:58.490Z,101012.92
2023-04-04T10:11:31.829Z,101013.64
2023-04-04T10:14:02.792Z,101013.14
2023-04-04T10:16:37.168Z,101020.60
2023-04-04T10:19:08.085Z,101024.99
2023-04-04T10:21:36.837Z,101026.12
2023-04-04T10:24:10.015Z,101018.84
2023-04-04T10:26:38.614Z,101021.27
2023-04-04T10:29:06.910Z,101021.30
2023-04-04T10:31:41.158Z,101023.73
2023-04-04T10:34:28.521Z,101024.32
2023-04-04T10:37:24.844Z,101022.02
2023-04-04T10:40:08.072Z,101017.23
2023-04-04T10:42:40.709Z,101017.58
2023-04-04T10:45:20.525Z,101021.82
2023-04-04T10:47:51.726Z,101017.77
2023-04-04T10:50:20.987Z,101023.20
2023-04-04T10:52:50.569Z,101022.41
2023-04-04T10:55:20.016Z,101019.56
2023-04-04T10:57:52.578Z,101017.98
2023-04-04T11:04:48.072Z,101010.06
2023-04-04T11:07:17.672Z,101012.30
2023-04-04T11:09:54.104Z,101009.15
2023-04-04T11:12:33.698Z,101008.71
2023-04-04T11:15:13.062Z,101006.27
2023-04-04T11:17:46.019Z,101008.44
2023-04-04T11:20:28.505Z,101005.02
2023-04-04T11:23:09.028Z,101005.77
2023-04-04T11:25:42.148Z,101003.39
2023-04-04T11:28:15.371Z,100996.41
2023-04-04T11:30:48.508Z,100995.41
2023-04-04T11:33:27.615Z,100991.17
2023-04-04T11:36:01.284Z,100992.59
2023-04-04T11:38:29.880Z,100994.42
2023-04-04T11:40:57.951Z,100995.81
2023-04-04T11:43:27.035Z,100999.19
2023-04-04T11:46:06.912Z,100993.52
2023-04-04T11:48:35.067Z,100995.59
2023-04-04T11:51:04.064Z,100996.66
2023-04-04T11:53:33.313Z,100995.59
2023-04-04T11:56:01.822Z,100993.30
2023-04-04T11:58:29.980Z,100994.02
2023-04-04T12:00:57.909Z,100991.36
2023-04-04T12:03:30.088Z,100992.02
2023-04-04T12:05:59.493Z,100988.33
2023-04-04T12:08:28.225Z,100985.77
2023-04-04T12:10:57.768Z,100989.33
2023-04-04T12:13:31.445Z,100987.17
2023-04-04T12:16:00.811Z,100986.73
2023-04-04T12:18:29.823Z,100984.96
2023-04-04T12:20:58.030Z,100985.95
2023-04-04T12:23:27.675Z,100987.34
2023-04-04T12:25:56.996Z,100991.01
2023-04-04T12:28:27.299Z,100989.44
2023-04-04T12:30:56.821Z,100991.64
2023-04-04T12:33:24.840Z,100984.34
2023-04-04T12:35:53.730Z,100982.27
2023-04-04T12:38:21.912Z,100982.69
2023-04-04T12:40:51.776Z,100977.36
2023-04-04T12:43:20.856Z,100971.10
2023-04-04T12:45:54.948Z,100972.05
2023-04-04T12:48:29.029Z,100973.36
2023-04-04T12:50:58.637Z,100975.24
2023-04-04T12:53:29.534Z,100971.14
2023-04-04T12:56:04.700Z,100973.55
2023-04-04T12:58:35.843Z,100970.41
2023-04-04T13:01:05.747Z,100969.65
2023-04-04T13:03:34.756Z,100966.68
2023-04-04T13:06:03.107Z,100967.77
2023-04-04T13:08:31.772Z,100965.96
2023-04-04T13:11:05.253Z,100964.05
2023-04-04T13:13:41.061Z,100960.52
2023-04-04T13:16:11.829Z,100959.95
2023-04-04T13:18:44.302Z,100957.84
2023-04-04T13:21:13.784Z,100955.20
2023-04-04T13:23:41.892Z,100959.80
2023-04-04T13:26:11.183Z,100962.90
2023-04-04T13:28:39.337Z,100957.94
2023-04-04T13:31:10.059Z,100958.36
2023-04-04T13:33:38.152Z,100955.86
2023-04-04T13:36:24.179Z,100959.16
2023-04-04T13:38:52.218Z,100957.48
2023-04-04T13:41:20.701Z,100956.41
2023-04-04T13:43:49.272Z,100957.83
2023-04-04T13:46:17.878Z,100958.13
2023-04-04T13:48:46.361Z,100956.30
2023-04-04T13:51:14.477Z,100955.03
2023-04-04T13:53:42.469Z,100956.42
2023-04-04T13:56:17.921Z,100957.30
2023-04-04T13:58:47.244Z,100957.16
2023-04-04T14:01:15.498Z,100955.94
2023-04-04T14:03:43.876Z,100957.68
2023-04-04T14:06:12.547Z,100956.69
2023-04-04T14:08:40.527Z,100962.61
2023-04-04T14:11:08.663Z,100965.77
2023-04-04T14:13:36.902Z,100961.50
2023-04-04T14:16:05.295Z,100961.34
2023-04-04T14:18:34.632Z,100961.06
2023-04-04T14:21:03.656Z,100961.11
2023-04-04T14:23:31.945Z,100958.73
2023-04-04T14:26:00.702Z,100955.98
2023-04-04T14:28:28.962Z,100952.82
2023-04-04T14:30:56.906Z,100948.70
2023-04-04T14:33:25.180Z,100946.55
2023-04-04T14:35:53.274Z,100945.95
2023-04-04T14:38:21.366Z,100948.35
2023-04-04T14:40:49.595Z,100947.93
2023-04-04T14:43:17.651Z,100951.55
2023-04-04T14:45:45.918Z,100954.23
2023-04-04T14:48:14.278Z,100958.14
2023-04-04T14:50:42.941Z,100957.98
2023-04-04T14:53:11.118Z,100958.52
2023-04-04T14:55:39.549Z,100956.79
2023-04-04T14:58:08.722Z,100958.86
2023-04-04T15:00:36.760Z,100955.41
2023-04-04T15:03:07.374Z,100950.81
2023-04-04T15:05:35.661Z,100949.69
2023-04-04T15:08:04.085Z,100944.17
2023-04-04T15:10:32.128Z,100940.95
2023-04-04T15:13:00.252Z,100938.09
2023-04-04T15:15:29.191Z,100936.91
2023-04-04T15:17:57.992Z,100942.21
2023-04-04T15:20:27.180Z,100941.51
2023-04-04T15:22:56.363Z,100943.52
2023-04-04T15:25:24.540Z,100942.85
2023-04-04T15:27:52.975Z,100935.68
2023-04-04T15:30:21.295Z,100942.42
2023-04-04T15:32:50.469Z,100943.92
2023-04-04T15:35:22.105Z,100947.04
2023-04-04T15:37:51.521Z,100942.59
2023-04-04T15:40:19.984Z,100938.86
2023-04-04T15:42:48.473Z,100934.04
2023-04-04T15:45:16.684Z,100936.04
2023-04-04T15:47:45.359Z,100940.39
2023-04-04T15:50:13.546Z,100941.39
2023-04-04T15:52:41.937Z,100940.38
2023-04-04T15:55:17.114Z,100941.44
2023-04-04T15:57:46.028Z,100941.15
2023-04-04T16:00:14.611Z,100936.97
2023-04-04T16:02:43.102Z,100938.89
2023-04-04T16:05:21.102Z,100938.50
2023-04-04T16:07:50.030Z,100938.73
2023-04-04T16:10:18.569Z,100936.55
2023-04-04T16:12:46.565Z,100934.15
2023-04-04T16:15:14.705Z,100933.44
2023-04-04T16:17:42.781Z,100929.95
2023-04-04T16:20:12.098Z,100934.09
2023-04-04T16:22:40.054Z,100931.39
2023-04-04T16:25:08.992Z,100940.09
2023-04-04T16:27:37.406Z,100939.78
2023-04-04T16:30:06.320Z,100942.51
2023-04-04T16:32:34.590Z,100941.27
2023-04-04T16:35:02.906Z,100940.65
2023-04-04T16:37:30.979Z,100937.23
2023-04-04T16:40:01.518Z,100941.10
2023-04-04T16:42:30.068Z,100940.60
2023-04-04T16:44:58.320Z,100945.38
2023-04-04T16:47:28.031Z,100941.67
2023-04-04T16:49:56.464Z,100941.30
2023-04-04T16:52:24.708Z,100938.45
2023-04-04T16:54:54.451Z,100937.04
2023-04-04T16:57:23.104Z,100936.30
2023-04-04T16:59:51.882Z,100935.23
2023-04-04T17:02:20.294Z,100935.47
2023-04-04T17:04:51.212Z,100935.04
2023-04-04T17:07:20.946Z,100934.95
2023-04-04T17:09:50.714Z,100935.52
2023-04-04T17:12:20.315Z,100934.36
2023-04-04T17:14:48.206Z,100935.86
2023-04-04T17:17:17.457Z,100936.05
2023-04-04T17:19:45.882Z,100939.79
2023-04-04T17:22:14.117Z,100936.64
2023-04-04T17:24:42.516Z,100938.23
2023-04-04T17:27:10.875Z,100940.55
2023-04-04T17:29:39.258Z,100946.36
2023-04-04T17:32:07.814Z,100946.02
2023-04-04T17:34:35.811Z,100950.48
2023-04-04T17:37:04.199Z,100951.66
2023-04-04T17:39:32.805Z,100954.08
2023-04-04T17:42:03.395Z,100953.21
2023-04-04T17:44:31.981Z,100956.30
2023-04-04T17:47:00.521Z,100957.08
2023-04-04T17:49:29.506Z,100956.44
2023-04-04T17:51:58.255Z,100958.30
2023-04-04T17:54:29.615Z,100956.17
2023-04-04T17:56:57.753Z,100959.58
2023-04-04T17:59:25.797Z,100959.62
2023-04-04T18:01:54.097Z,100959.38
2023-04-04T18:04:23.979Z,100959.35
2023-04-04T18:06:52.450Z,100962.77
2023-04-04T18:09:20.967Z,100963.10
2023-04-04T18:11:50.721Z,100966.88
2023-04-04T18:14:19.457Z,100969.73
2023-04-04T18:16:47.616Z,100973.24
2023-04-04T18:19:15.744Z,100973.27
2023-04-04T18:21:48.738Z,100975.27
2023-04-04T18:24:17.537Z,100975.20
2023-04-04T18:26:46.048Z,100977.20
2023-04-04T18:29:14.981Z,100977.98
2023-04-04T18:31:43.162Z,100982.92
2023-04-04T18:34:15.214Z,100979.42
2023-04-04T18:36:43.901Z,100979.83
2023-04-04T18:39:12.449Z,100979.96
2023-04-04T18:41:40.697Z,100980.20
2023-04-04T18:44:09.194Z,100979.54
2023-04-04T18:46:39.325Z,100974.01
2023-04-04T18:49:07.983Z,100979.20
2023-04-04T18:51:36.892Z,100977.52
2023-04-04T18:54:05.332Z,100978.42
2023-04-04T18:56:33.327Z,100981.25
2023-04-04T18:59:02.268Z,100982.80
2023-04-04T19:04:40.281Z,100978.59
2023-04-04T19:07:11.008Z,100978.84
2023-04-04T19:09:41.127Z,100978.17
2023-04-04T19:12:09.721Z,100980.74
2023-04-04T19:14:37.983Z,100976.55
2023-04-04T19:17:06.058Z,100976.10
2023-04-04T19:19:34.545Z,100979.11
2023-04-04T19:22:03.752Z,100973.85
2023-04-04T19:24:33.348Z,100972.17
2023-04-04T19:27:03.122Z,100974.77
2023-04-04T19:29:32.172Z,100973.34
2023-04-04T19:32:05.671Z,100977.31
2023-04-04T19:34:34.337Z,100979.30
2023-04-04T19:37:02.668Z,100976.81
2023-04-04T19:39:33.668Z,100975.04
2023-04-04T19:42:02.160Z,100977.27
2023-04-04T19:44:31.441Z,100980.50
2023-04-04T19:47:01.094Z,100977.88
2023-04-04T19:49:30.662Z,100979.34
2023-04-04T19:52:01.185Z,100977.66
2023-04-04T19:54:34.423Z,100978.55
2023-04-04T19:57:09.009Z,100979.06
2023-04-04T20:00:02.060Z,100981.20
2023-04-04T20:02:36.691Z,100981.73
2023-04-04T20:05:53.789Z,100981.83
2023-04-04T20:08:21.870Z,100982.21
2023-04-04T20:10:53.547Z,100982.91
2023-04-04T20:13:21.514Z,100985.27
2023-04-04T20:15:50.055Z,100982.48
2023-04-04T20:18:25.519Z,100986.97
2023-04-04T20:21:00.372Z,100983.60
2023-04-04T20:23:31.440Z,100984.68
2023-04-04T20:26:08.796Z,100980.09
2023-04-04T20:28:37.172Z,100980.29
2023-04-04T20:31:12.220Z,100977.25
2023-04-04T20:33:40.853Z,100979.66
2023-04-04T20:36:30.212Z,100975.95
2023-04-04T20:38:59.297Z,100979.65
2023-04-04T20:41:27.473Z,100975.39
2023-04-04T20:43:57.587Z,100973.32
2023-04-04T20:46:27.591Z,100973.57
2023-04-04T20:48:58.324Z,100973.27
2023-04-04T20:51:31.185Z,100979.56
2023-04-04T20:54:02.458Z,100973.38
2023-04-04T20:56:40.596Z,100978.24
2023-04-04T20:59:31.537Z,100975.74
2023-04-04T21:02:16.641Z,100975.12
2023-04-04T21:04:46.207Z,100974.33
2023-04-04T21:07:36.517Z,100980.30
2023-04-04T21:10:21.667Z,100977.27
2023-04-04T21:12:51.456Z,100976.57
2023-04-04T21:15:28.615Z,100977.13
2023-04-04T21:18:00.852Z,100971.98
2023-04-04T21:20:47.205Z,100974.59
2023-04-04T21:23:27.636Z,100969.73
2023-04-04T21:25:57.965Z,100971.54
2023-04-04T21:28:31.298Z,100969.00
2023-04-04T21:31:00.677Z,100969.73
2023-04-04T21:33:28.790Z,100970.80
2023-04-04T21:35:56.768Z,100970.25
2023-04-04T21:38:35.336Z,100969.77
2023-04-04T21:41:30.696Z,100976.21
2023-04-04T21:44:07.254Z,100973.79
2023-04-04T21:46:38.041Z,100971.88
2023-04-04T21:49:07.932Z,100968.55
2023-04-04T21:51:36.887Z,100971.88
2023-04-04T21:54:05.592Z,100972.12
2023-04-04T21:56:33.924Z,100970.70
2023-04-04T21:59:04.486Z,100971.93
2023-04-04T22:01:32.806Z,100972.70
2023-04-04T22:04:02.232Z,100974.83
2023-04-04T22:06:31.112Z,100970.68
2023-04-04T22:09:01.929Z,100972.78
2023-04-04T22:11:30.401Z,100969.11
2023-04-04T22:14:04.905Z,100971.09
2023-04-04T22:16:39.653Z,100967.86
2023-04-04T22:19:11.719Z,100965.76
2023-04-04T22:21:48.216Z,100966.18
2023-04-04T22:24:18.482Z,100966.83
2023-04-04T22:26:47.021Z,100967.83
2023-04-04T22:29:15.020Z,100972.13
2023-04-04T22:31:43.441Z,100969.86
2023-04-04T22:34:14.691Z,100966.15
2023-04-04T22:36:43.843Z,100968.68
2023-04-04T22:39:16.351Z,100967.00
2023-04-04T22:41:44.534Z,100967.48
2023-04-04T22:44:13.265Z,100967.11
2023-04-04T22:46:41.729Z,100963.94
2023-04-04T22:49:10.055Z,100963.14
2023-04-04T22:51:45.661Z,100962.44
2023-04-04T22:54:15.419Z,100958.55
2023-04-04T22:56:43.696Z,100957.64
2023-04-04T22:59:12.398Z,100960.44
2023-04-04T23:01:40.551Z,100958.02
2023-04-04T23:04:08.771Z,100959.67
2023-04-04T23:06:38.583Z,100957.17
2023-04-04T23:09:08.177Z,100954.01
2023-04-04T23:11:38.147Z,100951.02
2023-04-04T23:14:08.589Z,100951.77
2023-04-04T23:16:37.417Z,100952.52
2023-04-04T23:19:05.692Z,100949.99
2023-04-04T23:21:34.396Z,100950.30
2023-04-04T23:24:07.208Z,100944.34
2023-04-04T23:26:35.751Z,100941.68
2023-04-04T23:29:03.992Z,100937.19
2023-04-04T23:31:32.051Z,100934.81
2023-04-04T23:34:00.818Z,100935.14
2023-04-04T23:36:29.779Z,100931.82
2023-04-04T23:38:57.735Z,100928.05
2023-04-04T23:41:26.700Z,100927.11
2023-04-04T23:43:54.958Z,100930.44
2023-04-04T23:46:24.002Z,100922.83
2023-04-04T23:48:52.111Z,100920.16
2023-04-04T23:51:21.705Z,100917.95
2023-04-04T23:53:49.926Z,100922.38
2023-04-04T23:56:18.326Z,100915.64
2023-04-04T23:58:46.416Z,100922.18
